Terminal Aerodrome Forecast
Issued by NWS

Home | Current Version | Previous Version | Text Only | Print | Product List | Glossary On
Versions: 1 2 3 4 5 6 7 8 9 10 11 12 13 14 15 16 17 18 19 20 21 22 23 24 25 26 27 28 29 30
000
FTUS46 KOTX 180543
TAFPUW
TAF
KPUW 180543Z 1806/1906 13015KT P6SM VCSH SCT080 OVC100
      WS020/23040KT
     FM181000 13012KT P6SM -RA OVC040 WS020/23040KT
     FM181400 20008KT 5SM -RA OVC025
     FM181700 23009KT 3SM -RA BR OVC008
     FM182100 24012G20KT P6SM BKN030 OVC050
     FM190100 21005KT P6SM OVC050=

USA.gov is the U.S. government's official web portal to all federal, state and local government web resources and services.